createdAt,value
2018-04-11T05:57:43.399Z,25.60
2018-04-11T06:00:18.125Z,23.77
2018-04-11T06:02:53.814Z,26.73
2018-04-11T06:05:29.374Z,20.30
2018-04-11T06:08:04.795Z,17.70
2018-04-11T06:10:39.377Z,21.30
2018-04-11T06:13:14.718Z,24.33
2018-04-11T06:15:49.651Z,20.40
2018-04-11T06:18:24.273Z,20.30
2018-04-11T06:20:59.004Z,23.30
2018-04-11T06:23:33.674Z,24.13
2018-04-11T06:26:08.803Z,20.27
2018-04-11T06:28:43.532Z,21.93
2018-04-11T06:31:18.071Z,18.93
2018-04-11T06:33:52.663Z,18.73
2018-04-11T06:36:27.386Z,18.77
2018-04-11T06:39:02.208Z,19.67
2018-04-11T06:41:36.871Z,22.20
2018-04-11T06:44:11.470Z,20.33
2018-04-11T06:46:46.335Z,20.77
2018-04-11T06:49:21.144Z,18.40
2018-04-11T06:51:55.731Z,20.43
2018-04-11T06:54:30.363Z,20.20
2018-04-11T06:57:05.181Z,22.93
2018-04-11T06:59:39.744Z,21.83
2018-04-11T07:02:15.096Z,20.00
2018-04-11T07:04:49.688Z,20.50
2018-04-11T07:07:24.321Z,17.53
2018-04-11T07:09:59.094Z,17.90
2018-04-11T07:12:33.949Z,20.50
2018-04-11T07:15:09.758Z,23.50
2018-04-11T07:17:44.612Z,22.13
2018-04-11T07:20:19.403Z,22.07
2018-04-11T07:22:54.147Z,17.60
2018-04-11T07:25:29.008Z,19.70
2018-04-11T07:28:03.685Z,19.20
2018-04-11T07:30:38.327Z,18.70
2018-04-11T07:33:12.893Z,18.67
2018-04-11T07:35:47.637Z,19.60
2018-04-11T07:38:22.529Z,18.60
2018-04-11T07:40:57.328Z,18.27
2018-04-11T07:43:32.107Z,18.00
2018-04-11T07:46:06.908Z,21.80
2018-04-11T07:48:41.534Z,18.53
2018-04-11T07:51:16.268Z,19.70
2018-04-11T07:53:51.064Z,20.23
2018-04-11T07:56:26.474Z,18.27
2018-04-11T07:59:02.058Z,19.63
2018-04-11T08:01:36.816Z,18.03
2018-04-11T08:04:12.391Z,19.17
2018-04-11T08:06:47.340Z,18.63
2018-04-11T08:09:22.752Z,19.00
2018-04-11T08:11:58.089Z,18.43
2018-04-11T08:14:33.928Z,17.77
2018-04-11T08:17:08.649Z,19.70
2018-04-11T08:19:37.572Z,18.60
2018-04-11T08:22:12.136Z,17.50
2018-04-11T08:24:47.520Z,18.93
2018-04-11T08:27:21.902Z,18.80
2018-04-11T08:29:56.613Z,19.20
2018-04-11T08:32:31.758Z,18.00
2018-04-11T08:35:06.762Z,17.70
2018-04-11T08:37:41.722Z,22.33
2018-04-11T08:40:16.470Z,16.03
2018-04-11T08:42:51.081Z,19.93
2018-04-11T08:45:25.852Z,17.90
2018-04-11T08:48:01.522Z,18.00
2018-04-11T08:50:37.172Z,17.43
2018-04-11T08:53:12.008Z,19.83
2018-04-11T08:55:47.066Z,19.23
2018-04-11T08:58:21.796Z,16.50
2018-04-11T09:00:56.824Z,22.10
2018-04-11T09:03:31.626Z,18.20
2018-04-11T09:06:06.865Z,17.37
2018-04-11T09:08:41.474Z,18.63
2018-04-11T09:11:16.399Z,19.20
2018-04-11T09:13:51.197Z,16.83
2018-04-11T09:16:25.848Z,24.60
2018-04-11T09:19:01.205Z,18.13
2018-04-11T09:21:36.023Z,20.73
2018-04-11T09:24:11.145Z,18.07
2018-04-11T09:26:46.084Z,16.10
2018-04-11T09:29:20.986Z,20.20
2018-04-11T09:31:56.532Z,24.30
2018-04-11T09:34:31.386Z,21.43
2018-04-11T09:37:07.347Z,21.33
2018-04-11T09:39:42.285Z,24.63
2018-04-11T09:42:17.104Z,22.03
2018-04-11T09:44:52.105Z,22.07
2018-04-11T09:47:28.117Z,27.33
2018-04-11T09:50:02.839Z,34.67
2018-04-11T09:52:37.503Z,50.07
2018-04-11T09:55:12.863Z,37.00
2018-04-11T09:57:47.871Z,36.23
2018-04-11T10:00:22.614Z,32.50
2018-04-11T10:03:03.714Z,40.30
2018-04-11T10:05:38.538Z,44.73
2018-04-11T10:08:13.107Z,54.40
2018-04-11T10:10:47.822Z,55.60
2018-04-11T10:13:22.437Z,49.33
2018-04-11T10:15:57.137Z,43.40
2018-04-11T10:18:31.518Z,30.10
2018-04-11T10:21:06.939Z,41.30
2018-04-11T10:23:42.069Z,35.07
2018-04-11T10:26:16.809Z,41.00
2018-04-11T10:28:51.750Z,40.90
2018-04-11T10:31:26.722Z,39.90
2018-04-11T10:34:01.500Z,35.07
2018-04-11T10:36:36.321Z,32.57
2018-04-11T10:39:11.133Z,35.53
2018-04-11T10:41:45.838Z,40.00
2018-04-11T10:44:20.504Z,36.83
2018-04-11T10:46:55.192Z,38.80
2018-04-11T10:49:29.997Z,37.63
2018-04-11T10:52:04.751Z,42.27
2018-04-11T10:54:39.691Z,50.33
2018-04-11T10:57:14.480Z,45.23
2018-04-11T10:59:49.174Z,40.83
2018-04-11T11:02:24.057Z,42.47
2018-04-11T11:04:58.758Z,51.13
2018-04-11T11:07:33.711Z,51.50
2018-04-11T11:10:08.443Z,58.33
2018-04-11T11:12:42.773Z,62.60
2018-04-11T11:15:17.520Z,55.30
2018-04-11T11:17:52.462Z,54.70
2018-04-11T11:20:27.442Z,56.20
2018-04-11T11:22:57.432Z,49.73
2018-04-11T11:25:31.952Z,50.67
2018-04-11T11:28:06.479Z,55.00
2018-04-11T11:30:41.247Z,56.80
2018-04-11T11:33:16.017Z,62.00
2018-04-11T11:35:50.790Z,61.90
2018-04-11T11:38:26.186Z,57.37
2018-04-11T11:41:01.058Z,54.00
2018-04-11T11:43:35.786Z,65.43
2018-04-11T11:46:10.426Z,66.67
2018-04-11T11:48:44.967Z,55.50
2018-04-11T11:51:20.467Z,56.90
2018-04-11T11:53:55.111Z,55.37
2018-04-11T11:56:24.523Z,59.00
2018-04-11T11:58:53.706Z,51.07
2018-04-11T12:01:22.722Z,60.10
2018-04-11T12:03:52.007Z,67.47
2018-04-11T12:06:21.878Z,64.77
2018-04-11T12:08:51.733Z,70.80
2018-04-11T12:11:20.960Z,59.20
2018-04-11T12:13:50.944Z,67.53
2018-04-11T12:16:21.069Z,69.23
2018-04-11T12:18:50.927Z,68.33
2018-04-11T12:21:20.030Z,65.23
2018-04-11T12:23:49.068Z,71.87
2018-04-11T12:26:19.796Z,54.20
2018-04-11T12:28:48.934Z,45.90
2018-04-11T12:31:18.211Z,43.33
2018-04-11T12:33:47.187Z,43.20
2018-04-11T12:36:17.023Z,41.30
2018-04-11T12:38:46.958Z,41.93
2018-04-11T12:41:16.110Z,41.23
2018-04-11T12:43:45.308Z,47.07
2018-04-11T12:46:15.806Z,45.70
2018-04-11T12:48:46.561Z,44.60
2018-04-11T12:51:16.582Z,54.50
2018-04-11T12:53:46.220Z,50.77
2018-04-11T12:56:17.128Z,54.13
2018-04-11T12:58:46.318Z,52.93
2018-04-11T13:01:16.364Z,51.00
2018-04-11T13:03:45.578Z,55.10
2018-04-11T13:06:14.786Z,61.23
2018-04-11T13:08:44.512Z,60.03
2018-04-11T13:11:14.284Z,58.10
2018-04-11T13:13:43.241Z,61.93
2018-04-11T13:16:12.451Z,60.67
2018-04-11T13:18:41.847Z,66.93
2018-04-11T13:21:11.589Z,59.80
2018-04-11T13:23:40.765Z,63.03
2018-04-11T13:26:10.197Z,76.37
2018-04-11T13:28:39.696Z,61.77
2018-04-11T13:31:08.878Z,59.73
2018-04-11T13:33:37.894Z,59.97
2018-04-11T13:36:07.165Z,60.13
2018-04-11T13:38:36.175Z,70.70
2018-04-11T13:41:06.090Z,63.53
2018-04-11T13:43:35.616Z,58.80
2018-04-11T13:46:04.157Z,66.37
2018-04-11T13:48:33.111Z,67.03
2018-04-11T13:51:02.923Z,57.47
2018-04-11T13:53:31.632Z,57.43
2018-04-11T13:56:01.744Z,57.07
2018-04-11T13:58:30.699Z,54.77
2018-04-11T14:00:59.732Z,51.90
2018-04-11T14:03:28.870Z,55.10
2018-04-11T14:05:58.557Z,47.77
2018-04-11T14:08:28.353Z,51.63
2018-04-11T14:10:57.174Z,44.97
2018-04-11T14:13:27.053Z,41.93
2018-04-11T14:15:56.713Z,40.70
2018-04-11T14:18:26.624Z,41.67
2018-04-11T14:20:55.764Z,42.07
2018-04-11T14:23:28.394Z,31.60
2018-04-11T14:25:58.174Z,27.27
2018-04-11T14:28:29.271Z,33.90
2018-04-11T14:30:58.790Z,32.90
2018-04-11T14:33:28.332Z,32.33
2018-04-11T14:35:58.084Z,34.23
2018-04-11T14:38:27.220Z,33.23
2018-04-11T14:40:56.091Z,34.80
2018-04-11T14:43:25.305Z,33.10
2018-04-11T14:45:54.728Z,29.37
2018-04-11T14:48:23.547Z,35.53
2018-04-11T14:50:53.254Z,31.27
2018-04-11T14:53:23.168Z,29.80
2018-04-11T14:55:52.885Z,33.33
2018-04-11T14:58:22.707Z,28.63
2018-04-11T15:00:51.817Z,30.47
2018-04-11T15:03:21.811Z,29.23
2018-04-11T15:05:51.096Z,30.77
2018-04-11T15:08:20.216Z,31.80
2018-04-11T15:10:49.195Z,30.47
2018-04-11T15:13:19.698Z,31.30
2018-04-11T15:15:48.853Z,33.30
2018-04-11T15:18:18.092Z,30.80
2018-04-11T15:20:47.151Z,31.80
2018-04-11T15:23:16.167Z,34.17
2018-04-11T15:25:45.311Z,31.50
2018-04-11T15:28:14.319Z,32.77
2018-04-11T15:30:43.285Z,32.53
2018-04-11T15:33:12.379Z,30.90
2018-04-11T15:35:42.095Z,29.00
2018-04-11T15:38:11.336Z,30.63
2018-04-11T15:40:40.611Z,28.10
2018-04-11T15:43:09.935Z,24.00
2018-04-11T15:45:39.006Z,23.17
2018-04-11T15:48:08.220Z,23.73
2018-04-11T15:50:37.324Z,24.77
2018-04-11T15:53:06.494Z,26.63
2018-04-11T15:55:36.706Z,22.30
2018-04-11T15:58:08.019Z,19.63
2018-04-11T16:00:36.938Z,21.63
2018-04-11T16:03:06.041Z,20.70
2018-04-11T16:05:35.187Z,20.97
2018-04-11T16:08:04.185Z,22.40
2018-04-11T16:10:33.927Z,21.07
2018-04-11T16:13:02.965Z,19.97
2018-04-11T16:15:31.882Z,19.27
2018-04-11T16:18:01.138Z,22.13
2018-04-11T16:20:31.645Z,20.33
2018-04-11T16:23:01.621Z,20.90
2018-04-11T16:25:30.688Z,19.57
2018-04-11T16:28:00.476Z,19.97
2018-04-11T16:30:35.209Z,18.63
2018-04-11T16:33:04.002Z,16.60
2018-04-11T16:35:33.699Z,15.00
2018-04-11T16:38:04.081Z,13.80
2018-04-11T16:40:34.034Z,12.53
2018-04-11T16:43:03.165Z,13.20
2018-04-11T16:45:32.948Z,13.17
2018-04-11T16:48:02.883Z,14.00
2018-04-11T16:50:32.867Z,14.80
2018-04-11T16:53:01.912Z,13.00
2018-04-11T16:55:31.141Z,10.63
2018-04-11T16:58:01.311Z,9.50
2018-04-11T17:00:30.583Z,8.43
2018-04-11T17:03:01.151Z,8.57
2018-04-11T17:05:30.332Z,9.23
2018-04-11T17:07:59.409Z,11.80
2018-04-11T17:10:34.755Z,9.63
2018-04-11T17:13:10.793Z,9.37
2018-04-11T17:15:45.418Z,9.13
2018-04-11T17:18:20.171Z,8.47
2018-04-11T17:21:07.358Z,8.27
2018-04-11T17:23:48.479Z,8.80
2018-04-11T17:26:34.817Z,9.70
2018-04-11T17:29:30.508Z,8.87
2018-04-11T17:32:04.475Z,9.07
2018-04-11T17:34:39.143Z,8.37
2018-04-11T17:37:14.756Z,7.80
2018-04-11T17:39:52.909Z,8.10
2018-04-11T17:42:27.440Z,13.40
2018-04-11T17:45:02.733Z,9.50
2018-04-11T17:47:37.420Z,9.10
2018-04-11T17:50:12.339Z,7.73
2018-04-11T17:52:46.853Z,5.90
2018-04-11T17:55:21.480Z,5.90
2018-04-11T17:57:56.168Z,5.10
2018-04-11T18:00:30.720Z,5.33
2018-04-11T18:03:05.475Z,5.40
2018-04-11T18:05:36.118Z,5.50
2018-04-11T18:08:10.763Z,8.40
2018-04-11T18:10:45.697Z,6.73
2018-04-11T18:13:20.550Z,5.67
2018-04-11T18:15:55.266Z,6.10
2018-04-11T18:18:30.417Z,5.60
2018-04-11T18:20:59.371Z,5.33
2018-04-11T18:23:34.909Z,5.70
2018-04-11T18:26:10.236Z,6.23
2018-04-11T18:28:46.449Z,6.00
2018-04-11T18:31:15.397Z,6.60
2018-04-11T18:33:50.220Z,6.07
2018-04-11T18:36:24.869Z,6.40
2018-04-11T18:39:00.480Z,6.13
2018-04-11T18:41:35.290Z,5.97
2018-04-11T18:44:10.132Z,7.10
2018-04-11T18:46:44.758Z,6.43
2018-04-11T18:49:20.137Z,7.13
2018-04-11T18:51:54.702Z,7.43
2018-04-11T18:54:26.628Z,8.13
2018-04-11T18:57:01.144Z,7.63
2018-04-11T18:59:35.768Z,8.20
2018-04-11T19:02:10.386Z,9.47
2018-04-11T19:04:45.154Z,10.10
2018-04-11T19:07:19.729Z,10.37
2018-04-11T19:09:49.852Z,8.60
2018-04-11T19:12:24.473Z,8.17
2018-04-11T19:14:54.719Z,10.33
2018-04-11T19:17:23.857Z,8.70
2018-04-11T19:19:52.857Z,11.53
2018-04-11T19:22:22.801Z,9.53
2018-04-11T19:24:52.641Z,8.77
2018-04-11T19:27:22.575Z,8.50
2018-04-11T19:29:51.789Z,10.23
2018-04-11T19:32:21.091Z,9.37
2018-04-11T19:34:50.031Z,9.20
2018-04-11T19:37:19.778Z,9.00
2018-04-11T19:39:49.013Z,9.97
2018-04-11T19:42:18.215Z,10.00
2018-04-11T19:44:47.739Z,9.60
2018-04-11T19:47:16.603Z,10.70
2018-04-11T19:49:45.326Z,10.73
2018-04-11T19:52:14.214Z,12.50
2018-04-11T19:54:46.237Z,10.00
2018-04-11T19:57:15.310Z,11.50
2018-04-11T19:59:49.648Z,11.07
2018-04-11T20:02:24.439Z,11.70
2018-04-11T20:05:00.030Z,11.30
2018-04-11T20:07:34.723Z,11.23
2018-04-11T20:10:09.436Z,11.90
2018-04-11T20:12:44.191Z,12.07
2018-04-11T20:15:19.802Z,11.83
2018-04-11T20:17:54.347Z,13.77
2018-04-11T20:20:28.702Z,12.73
2018-04-11T20:23:03.271Z,11.43
2018-04-11T20:25:38.288Z,12.03
2018-04-11T20:28:12.884Z,12.97
2018-04-11T20:30:47.295Z,11.77
2018-04-11T20:33:21.958Z,12.33
2018-04-11T20:35:56.885Z,13.37
2018-04-11T20:38:31.326Z,12.37
2018-04-11T20:41:06.097Z,13.23
2018-04-11T20:43:40.859Z,12.40
2018-04-11T20:46:15.353Z,13.67
2018-04-11T20:48:50.231Z,12.67
2018-04-11T20:51:24.886Z,12.07
2018-04-11T20:54:00.325Z,11.37
2018-04-11T20:56:35.934Z,11.70
2018-04-11T20:59:10.701Z,13.17
2018-04-11T21:01:45.745Z,13.37
2018-04-11T21:04:20.616Z,14.00
2018-04-11T21:06:55.273Z,15.10
2018-04-11T21:09:30.183Z,12.30
2018-04-11T21:12:05.874Z,13.20
2018-04-11T21:14:41.467Z,12.23
2018-04-11T21:17:11.177Z,12.93
2018-04-11T21:19:45.822Z,13.10
2018-04-11T21:22:20.570Z,15.03
2018-04-11T21:24:55.284Z,16.67
2018-04-11T21:27:29.924Z,16.60
2018-04-11T21:30:04.499Z,13.33
2018-04-11T21:32:40.641Z,16.60
2018-04-11T21:35:15.463Z,14.20
2018-04-11T21:37:50.250Z,15.70
2018-04-11T21:40:24.942Z,13.77
2018-04-11T21:42:59.711Z,17.07
2018-04-11T21:45:34.359Z,16.60
2018-04-11T21:48:09.084Z,15.47
2018-04-11T21:50:43.951Z,16.23
2018-04-11T21:53:19.037Z,14.80
2018-04-11T21:55:54.438Z,17.17
2018-04-11T21:58:30.046Z,16.00
2018-04-11T22:01:05.389Z,14.90
2018-04-11T22:03:39.915Z,13.80
2018-04-11T22:06:14.585Z,14.53
2018-04-11T22:08:49.196Z,19.50
2018-04-11T22:11:24.791Z,14.87
2018-04-11T22:13:59.555Z,18.93
2018-04-11T22:16:34.213Z,20.40
2018-04-11T22:19:09.097Z,14.93
2018-04-11T22:21:43.912Z,14.13
2018-04-11T22:24:19.601Z,13.13
2018-04-11T22:26:54.051Z,14.20
2018-04-11T22:29:28.921Z,12.97
2018-04-11T22:32:03.664Z,15.97
2018-04-11T22:34:38.218Z,14.97
2018-04-11T22:37:13.006Z,14.47
2018-04-11T22:39:48.301Z,14.23
2018-04-11T22:42:22.990Z,18.00
2018-04-11T22:44:57.911Z,17.10
2018-04-11T22:47:33.633Z,17.33
2018-04-11T22:50:08.268Z,14.30
2018-04-11T22:52:43.714Z,16.40
2018-04-11T22:55:19.203Z,14.47
2018-04-11T22:57:54.773Z,19.33
2018-04-11T23:00:30.092Z,16.10
2018-04-11T23:03:04.822Z,15.77
2018-04-11T23:05:39.936Z,18.80
2018-04-11T23:08:14.757Z,17.00
2018-04-11T23:10:49.469Z,21.43
2018-04-11T23:13:24.365Z,13.80
2018-04-11T23:15:58.857Z,19.00
2018-04-11T23:18:33.232Z,18.43
2018-04-11T23:21:07.799Z,16.80
2018-04-11T23:23:42.688Z,13.47
2018-04-11T23:26:17.241Z,15.20
2018-04-11T23:28:52.090Z,14.13
2018-04-11T23:31:27.643Z,15.50
2018-04-11T23:34:02.275Z,17.17
2018-04-11T23:36:36.920Z,15.33
2018-04-11T23:39:11.582Z,15.50
2018-04-11T23:41:46.156Z,17.03
2018-04-11T23:44:21.774Z,15.50
2018-04-11T23:46:56.559Z,23.53
2018-04-11T23:49:31.176Z,20.73
2018-04-11T23:52:06.117Z,19.83
2018-04-11T23:54:40.871Z,16.83
2018-04-11T23:57:15.680Z,20.00
2018-04-11T23:59:51.314Z,20.30
